Time;durP1;ratioP1;P1;durP2;ratioP2;P2;SDS_P1;SDS_P2;PMS_P1;PMS_P2;Temp;Humidity;BMP_temperature;BMP_pressure;BME280_temperature;BME280_humidity;BME280_pressure;Samples;Min_cycle;Max_cycle;Signal;HPM_P1;HPM_P2
2022/06/17 00:01:30;;;;;;;4.40;2.38;;;;;;;;;;4840199;29;20102;-78
2022/06/17 00:03:57;;;;;;;7.55;2.83;;;;;;;;;;4826133;29;20039;-77
2022/06/17 00:06:24;;;;;;;9.52;2.90;;;;;;;;;;4825926;29;20034;-77
2022/06/17 00:08:54;;;;;;;4.78;2.88;;;;;;;;;;4826026;29;20031;-77
2022/06/17 00:11:24;;;;;;;8.63;2.60;;;;;;;;;;4840028;29;20073;-78
2022/06/17 00:13:51;;;;;;;5.40;2.65;;;;;;;;;;4825937;29;20034;-78
2022/06/17 00:16:18;;;;;;;5.28;2.70;;;;;;;;;;4839985;29;20409;-77
2022/06/17 00:18:44;;;;;;;4.78;2.70;;;;;;;;;;4825983;29;20041;-78
2022/06/17 00:21:16;;;;;;;6.43;3.08;;;;;;;;;;4839692;29;20038;-77
2022/06/17 00:23:43;;;;;;;4.43;2.30;;;;;;;;;;4839755;29;20035;-78
2022/06/17 00:26:10;;;;;;;4.97;3.00;;;;;;;;;;4825850;29;20026;-77
2022/06/17 00:28:37;;;;;;;8.43;2.85;;;;;;;;;;4825730;29;20037;-78
2022/06/17 00:31:03;;;;;;;7.13;2.58;;;;;;;;;;4825610;29;20102;-77
2022/06/17 00:33:29;;;;;;;5.55;2.53;;;;;;;;;;4825659;29;20086;-77
2022/06/17 00:35:56;;;;;;;6.15;2.53;;;;;;;;;;4839550;29;20027;-78
2022/06/17 00:38:24;;;;;;;7.25;2.42;;;;;;;;;;4825711;29;20361;-77
2022/06/17 00:40:51;;;;;;;4.78;2.65;;;;;;;;;;4839246;29;20031;-77
2022/06/17 00:43:20;;;;;;;7.68;2.60;;;;;;;;;;4825369;29;20042;-77
2022/06/17 00:45:50;;;;;;;4.38;2.72;;;;;;;;;;4839268;29;20106;-79
2022/06/17 00:48:24;;;;;;;5.85;2.80;;;;;;;;;;4839399;29;20114;-77
2022/06/17 00:51:04;;;;;;;8.32;2.60;;;;;;;;;;4839408;29;20034;-78
2022/06/17 00:53:35;;;;;;;6.25;2.88;;;;;;;;;;4839171;29;20026;-77
2022/06/17 00:56:05;;;;;;;5.82;2.63;;;;;;;;;;4824970;29;20057;-76
2022/06/17 00:58:31;;;;;;;4.65;2.45;;;;;;;;;;4838999;29;20489;-78
2022/06/17 01:00:59;;;;;;;5.40;2.53;;;;;;;;;;4825341;29;20069;-77
2022/06/17 01:03:31;;;;;;;5.13;2.67;;;;;;;;;;4839249;29;20037;-78
2022/06/17 01:06:09;;;;;;;4.57;2.78;;;;;;;;;;4838917;29;20042;-78
2022/06/17 01:11:24;;;;;;;7.97;2.88;;;;;;;;;;4825133;29;20079;-77
2022/06/17 01:13:51;;;;;;;7.07;2.80;;;;;;;;;;4838990;29;20034;-77
2022/06/17 01:16:20;;;;;;;5.20;3.08;;;;;;;;;;4824943;29;20038;-77
2022/06/17 01:18:46;;;;;;;6.18;2.80;;;;;;;;;;4838696;29;20059;-77
2022/06/17 01:21:20;;;;;;;7.40;2.97;;;;;;;;;;4838856;29;20060;-78
2022/06/17 01:23:48;;;;;;;7.20;2.80;;;;;;;;;;4838860;29;20077;-78
2022/06/17 01:26:15;;;;;;;6.03;2.75;;;;;;;;;;4838696;29;20473;-77
2022/06/17 01:28:42;;;;;;;5.28;3.10;;;;;;;;;;4825005;29;20033;-78
2022/06/17 01:31:08;;;;;;;4.60;2.65;;;;;;;;;;4824678;29;20034;-77
2022/06/17 01:33:39;;;;;;;4.95;3.20;;;;;;;;;;4824910;29;20027;-77
2022/06/17 01:36:10;;;;;;;6.32;3.30;;;;;;;;;;4838636;29;20106;-78
2022/06/17 01:38:39;;;;;;;6.55;3.20;;;;;;;;;;4838435;29;20034;-76
2022/06/17 01:41:05;;;;;;;5.35;3.35;;;;;;;;;;4838540;29;20033;-77
2022/06/17 01:43:40;;;;;;;9.50;2.83;;;;;;;;;;4838548;29;20057;-78
2022/06/17 01:46:10;;;;;;;7.30;3.20;;;;;;;;;;4838383;29;20069;-77
2022/06/17 01:48:37;;;;;;;7.45;2.92;;;;;;;;;;4838545;29;20045;-79
2022/06/17 01:51:05;;;;;;;4.85;2.65;;;;;;;;;;4824651;29;20037;-78
2022/06/17 01:53:34;;;;;;;4.57;2.90;;;;;;;;;;4838418;29;20076;-77
2022/06/17 01:56:07;;;;;;;6.63;3.08;;;;;;;;;;4838306;29;20022;-77
2022/06/17 01:58:33;;;;;;;4.78;3.00;;;;;;;;;;4838344;29;20148;-79
2022/06/17 02:01:01;;;;;;;8.65;3.30;;;;;;;;;;4838301;29;20037;-77
2022/06/17 02:03:30;;;;;;;7.10;2.88;;;;;;;;;;4838288;29;20034;-77
2022/06/17 02:06:01;;;;;;;11.25;3.03;;;;;;;;;;4838552;29;20173;-76
2022/06/17 02:08:27;;;;;;;9.23;3.38;;;;;;;;;;4844494;29;20065;-79
2022/06/17 02:10:53;;;;;;;5.53;2.80;;;;;;;;;;4844325;29;20030;-77
2022/06/17 02:13:20;;;;;;;8.65;2.80;;;;;;;;;;4830209;29;20046;-77
2022/06/17 02:15:47;;;;;;;6.05;2.85;;;;;;;;;;4844267;29;20090;-78
2022/06/17 02:18:15;;;;;;;9.68;2.92;;;;;;;;;;4844115;29;20076;-77
2022/06/17 02:20:42;;;;;;;5.03;2.78;;;;;;;;;;4830303;29;20064;-77
2022/06/17 02:23:08;;;;;;;8.77;3.10;;;;;;;;;;4844423;29;20058;-78
2022/06/17 02:25:46;;;;;;;9.95;3.05;;;;;;;;;;4844170;29;20079;-77
2022/06/17 02:28:13;;;;;;;9.35;3.30;;;;;;;;;;4844463;29;20505;-78
2022/06/17 02:30:41;;;;;;;9.00;3.22;;;;;;;;;;4830187;29;20038;-77
2022/06/17 02:33:09;;;;;;;7.28;3.40;;;;;;;;;;4830083;29;20053;-77
2022/06/17 02:35:43;;;;;;;7.68;3.88;;;;;;;;;;4830091;29;20022;-79
2022/06/17 02:38:15;;;;;;;8.25;4.32;;;;;;;;;;4830193;29;20034;-77
2022/06/17 02:40:44;;;;;;;10.25;4.70;;;;;;;;;;4843966;29;20404;-77
2022/06/17 02:43:13;;;;;;;7.03;4.20;;;;;;;;;;4844013;29;20038;-77
2022/06/17 02:45:42;;;;;;;5.43;3.63;;;;;;;;;;4830035;29;20039;-78
2022/06/17 02:48:29;;;;;;;8.30;4.05;;;;;;;;;;4844180;29;20074;-77
2022/06/17 02:50:58;;;;;;;8.80;4.00;;;;;;;;;;4828430;29;20037;-77
2022/06/17 02:53:51;;;;;;;7.07;3.92;;;;;;;;;;4844063;29;20030;-78
2022/06/17 02:56:20;;;;;;;9.38;4.38;;;;;;;;;;4829402;29;20082;-76
2022/06/17 02:58:49;;;;;;;10.73;4.18;;;;;;;;;;4843887;29;20117;-76
2022/06/17 03:01:20;;;;;;;6.43;4.30;;;;;;;;;;4843954;29;20041;-77
2022/06/17 03:03:47;;;;;;;10.57;4.35;;;;;;;;;;4843749;29;20091;-76
2022/06/17 03:06:31;;;;;;;8.30;3.78;;;;;;;;;;4843961;29;20030;-77
2022/06/17 03:08:59;;;;;;;6.10;3.67;;;;;;;;;;4829759;29;20129;-77
2022/06/17 03:11:26;;;;;;;6.72;4.15;;;;;;;;;;4844007;29;20023;-77
2022/06/17 03:13:54;;;;;;;11.85;4.00;;;;;;;;;;4829679;29;20030;-76
2022/06/17 03:16:21;;;;;;;8.40;4.30;;;;;;;;;;4843521;29;20441;-77
2022/06/17 03:18:49;;;;;;;6.32;3.72;;;;;;;;;;4840609;29;20030;-77
2022/06/17 03:21:20;;;;;;;9.35;3.95;;;;;;;;;;4826573;29;20027;-76
2022/06/17 03:23:51;;;;;;;8.48;3.70;;;;;;;;;;4826799;29;20495;-76
2022/06/17 03:26:20;;;;;;;11.23;3.88;;;;;;;;;;4840800;29;20125;-77
2022/06/17 03:28:51;;;;;;;8.55;4.20;;;;;;;;;;4840753;29;20138;-76
2022/06/17 03:31:44;;;;;;;8.00;4.38;;;;;;;;;;4840542;29;20117;-75
2022/06/17 03:34:16;;;;;;;9.43;4.20;;;;;;;;;;4840372;29;20034;-78
2022/06/17 03:36:44;;;;;;;9.27;4.35;;;;;;;;;;4840608;29;20035;-78
2022/06/17 03:39:33;;;;;;;10.13;4.05;;;;;;;;;;4840596;29;20510;-77
2022/06/17 03:42:03;;;;;;;7.65;4.20;;;;;;;;;;4822543;29;20047;-77
2022/06/17 03:44:33;;;;;;;6.32;3.97;;;;;;;;;;4840288;29;20039;-77
2022/06/17 03:47:04;;;;;;;7.32;3.97;;;;;;;;;;4840635;29;20041;-78
2022/06/17 03:49:35;;;;;;;6.43;3.70;;;;;;;;;;4840357;29;20038;-77
2022/06/17 03:52:06;;;;;;;8.63;3.70;;;;;;;;;;4826137;29;20058;-78
2022/06/17 03:54:32;;;;;;;7.82;3.67;;;;;;;;;;4826157;29;20050;-78
2022/06/17 03:57:01;;;;;;;6.53;3.45;;;;;;;;;;4826206;29;20412;-79
2022/06/17 03:59:30;;;;;;;8.50;4.00;;;;;;;;;;4840232;29;20398;-78
2022/06/17 04:02:03;;;;;;;7.53;3.47;;;;;;;;;;4839916;29;20069;-80
2022/06/17 04:04:33;;;;;;;7.75;3.80;;;;;;;;;;4839652;29;20042;-79
2022/06/17 04:07:00;;;;;;;7.70;3.40;;;;;;;;;;4834765;29;20092;-76
2022/06/17 04:09:28;;;;;;;7.43;3.75;;;;;;;;;;4817832;29;20041;-78
2022/06/17 04:12:00;;;;;;;6.57;3.67;;;;;;;;;;4839231;29;20034;-78
2022/06/17 04:14:35;;;;;;;8.90;3.35;;;;;;;;;;4839695;29;20034;-80
2022/06/17 04:17:34;;;;;;;5.60;3.45;;;;;;;;;;4839912;29;20037;-78
2022/06/17 04:20:20;;;;;;;7.72;3.42;;;;;;;;;;4814265;29;20043;-78
2022/06/17 04:22:48;;;;;;;8.15;3.58;;;;;;;;;;4825841;29;20121;-80
2022/06/17 04:25:21;;;;;;;6.28;3.35;;;;;;;;;;4826729;29;20046;-82
2022/06/17 04:27:57;;;;;;;6.65;3.58;;;;;;;;;;4839786;29;20068;-81
2022/06/17 04:30:25;;;;;;;6.38;3.53;;;;;;;;;;4831486;29;20035;-80
2022/06/17 04:32:55;;;;;;;6.07;3.28;;;;;;;;;;4829396;29;20043;-79
2022/06/17 04:35:22;;;;;;;7.10;3.22;;;;;;;;;;4821218;29;20393;-79
2022/06/17 04:37:48;;;;;;;5.20;3.10;;;;;;;;;;4807098;29;20042;-80
2022/06/17 04:40:24;;;;;;;5.35;3.05;;;;;;;;;;4807244;29;20393;-80
2022/06/17 04:42:52;;;;;;;7.35;2.90;;;;;;;;;;4821182;29;20498;-80
2022/06/17 04:45:20;;;;;;;5.18;3.08;;;;;;;;;;4822314;29;20038;-81
2022/06/17 04:47:46;;;;;;;6.55;3.33;;;;;;;;;;4821035;29;20126;-80
2022/06/17 04:50:15;;;;;;;5.57;2.80;;;;;;;;;;4820734;29;20034;-81
2022/06/17 04:52:45;;;;;;;5.93;3.30;;;;;;;;;;4805815;29;20031;-81
2022/06/17 04:55:22;;;;;;;5.65;2.42;;;;;;;;;;4820386;29;20123;-81
2022/06/17 04:57:48;;;;;;;6.07;2.00;;;;;;;;;;4820426;29;20389;-81
2022/06/17 05:00:17;;;;;;;9.70;2.85;;;;;;;;;;4820920;29;20030;-80
2022/06/17 05:02:43;;;;;;;5.85;2.50;;;;;;;;;;4820977;29;20121;-80
2022/06/17 05:05:12;;;;;;;4.13;2.33;;;;;;;;;;4806922;29;20046;-80
2022/06/17 05:07:42;;;;;;;4.15;2.13;;;;;;;;;;4820816;29;20038;-80
2022/06/17 05:10:13;;;;;;;5.00;2.25;;;;;;;;;;4820753;29;20027;-81
2022/06/17 05:12:40;;;;;;;4.47;2.03;;;;;;;;;;4820979;29;20073;-80
2022/06/17 05:15:09;;;;;;;4.70;2.28;;;;;;;;;;4820731;29;20123;-81
2022/06/17 05:17:38;;;;;;;6.28;1.80;;;;;;;;;;4820857;29;20031;-81
2022/06/17 05:20:04;;;;;;;5.22;2.00;;;;;;;;;;4820471;29;20053;-80
2022/06/17 05:22:35;;;;;;;5.45;2.03;;;;;;;;;;4820639;29;20500;-80
2022/06/17 05:25:06;;;;;;;3.47;1.80;;;;;;;;;;4820366;29;20042;-81
2022/06/17 05:27:32;;;;;;;3.72;1.80;;;;;;;;;;4820637;29;20030;-80
2022/06/17 05:29:58;;;;;;;3.08;1.65;;;;;;;;;;4820442;29;20031;-80
2022/06/17 05:32:24;;;;;;;3.58;1.55;;;;;;;;;;4820491;29;20485;-80
2022/06/17 05:34:50;;;;;;;3.63;1.70;;;;;;;;;;4806615;29;20110;-80
2022/06/17 05:37:18;;;;;;;3.78;1.38;;;;;;;;;;4823648;29;20122;-81
2022/06/17 05:39:44;;;;;;;3.20;1.30;;;;;;;;;;4820533;29;20077;-81
2022/06/17 05:42:13;;;;;;;1.85;1.10;;;;;;;;;;4819945;29;20045;-82
2022/06/17 05:44:40;;;;;;;3.75;1.30;;;;;;;;;;4806116;29;20039;-82
2022/06/17 05:47:06;;;;;;;3.83;1.40;;;;;;;;;;4820340;29;20121;-80
2022/06/17 05:49:32;;;;;;;3.75;1.30;;;;;;;;;;4820437;29;20388;-80
2022/06/17 05:51:59;;;;;;;3.90;1.27;;;;;;;;;;4806278;29;20034;-84
2022/06/17 05:54:25;;;;;;;4.88;1.38;;;;;;;;;;4806476;29;20027;-80
2022/06/17 05:56:51;;;;;;;5.57;1.35;;;;;;;;;;4819818;29;20046;-80
2022/06/17 05:59:17;;;;;;;3.33;1.20;;;;;;;;;;4820182;29;20035;-82
2022/06/17 06:01:45;;;;;;;2.35;1.17;;;;;;;;;;4819945;29;20481;-79
2022/06/17 06:04:11;;;;;;;3.72;1.27;;;;;;;;;;4806208;29;20038;-85
2022/06/17 06:06:37;;;;;;;3.08;1.55;;;;;;;;;;4820393;29;20039;-82
2022/06/17 06:09:03;;;;;;;2.42;1.08;;;;;;;;;;4820871;29;20031;-81
2022/06/17 06:11:29;;;;;;;2.70;1.20;;;;;;;;;;4820027;29;20477;-80
2022/06/17 06:13:55;;;;;;;2.45;1.30;;;;;;;;;;4820297;29;20437;-79
2022/06/17 06:16:23;;;;;;;4.47;1.38;;;;;;;;;;4821752;29;20031;-83
2022/06/17 06:18:50;;;;;;;2.67;1.45;;;;;;;;;;4819974;29;20034;-81
2022/06/17 06:21:16;;;;;;;4.50;2.65;;;;;;;;;;4819747;29;20118;-80
2022/06/17 06:23:43;;;;;;;5.50;3.00;;;;;;;;;;4820114;29;20106;-80
2022/06/17 06:26:17;;;;;;;6.90;4.72;;;;;;;;;;4831875;29;20061;-80
2022/06/17 06:28:44;;;;;;;3.83;1.80;;;;;;;;;;4841375;29;20392;-81
2022/06/17 06:31:36;;;;;;;3.25;1.60;;;;;;;;;;4843586;29;20097;-82
2022/06/17 06:34:02;;;;;;;2.80;1.40;;;;;;;;;;4819834;29;20042;-81
2022/06/17 06:36:28;;;;;;;4.10;2.30;;;;;;;;;;4847281;29;20034;-80
2022/06/17 06:38:54;;;;;;;6.80;3.45;;;;;;;;;;4844079;29;20031;-80
2022/06/17 06:41:21;;;;;;;5.05;2.90;;;;;;;;;;4842106;29;20122;-80
2022/06/17 06:43:48;;;;;;;2.88;1.67;;;;;;;;;;4844920;29;20034;-80
2022/06/17 06:46:15;;;;;;;4.75;2.00;;;;;;;;;;4844519;29;20038;-81
2022/06/17 06:48:42;;;;;;;7.45;2.03;;;;;;;;;;4844208;29;20378;-80
2022/06/17 06:51:08;;;;;;;2.63;1.70;;;;;;;;;;4823794;29;20096;-84
2022/06/17 06:53:34;;;;;;;3.53;1.90;;;;;;;;;;4865714;29;20031;-87
2022/06/17 06:56:02;;;;;;;5.60;1.50;;;;;;;;;;4857237;29;20046;-90
2022/06/17 06:58:28;;;;;;;5.22;1.80;;;;;;;;;;4856559;29;20074;-80
2022/06/17 07:00:56;;;;;;;2.85;1.70;;;;;;;;;;4856845;29;20038;-85
2022/06/17 07:03:22;;;;;;;2.92;1.70;;;;;;;;;;4856925;29;20026;-82
2022/06/17 07:05:53;;;;;;;3.45;1.60;;;;;;;;;;4857013;29;20393;-95
2022/06/17 07:08:25;;;;;;;5.63;1.83;;;;;;;;;;4857995;29;20042;-87
2022/06/17 07:10:52;;;;;;;7.97;2.10;;;;;;;;;;4857162;29;20030;-84
2022/06/17 07:13:19;;;;;;;4.00;1.80;;;;;;;;;;4856437;29;20033;-83
2022/06/17 07:15:46;;;;;;;4.25;1.92;;;;;;;;;;4856272;29;20074;-83
2022/06/17 07:18:14;;;;;;;4.78;1.70;;;;;;;;;;4856246;29;20129;-82
2022/06/17 07:20:44;;;;;;;4.47;1.98;;;;;;;;;;4826826;29;20031;-82
2022/06/17 07:23:18;;;;;;;5.38;1.90;;;;;;;;;;4827122;29;20042;-80
2022/06/17 07:25:45;;;;;;;3.10;1.60;;;;;;;;;;4826734;29;20047;-81
2022/06/17 07:28:15;;;;;;;4.10;1.95;;;;;;;;;;4856080;29;20071;-77
2022/06/17 07:30:43;;;;;;;4.25;2.00;;;;;;;;;;4855487;29;20409;-74
2022/06/17 07:33:09;;;;;;;4.22;2.00;;;;;;;;;;4855771;29;20162;-77
2022/06/17 07:35:36;;;;;;;4.90;1.88;;;;;;;;;;4826415;29;20026;-77
2022/06/17 07:40:49;;;;;;;9.45;2.13;;;;;;;;;;4826649;29;20408;-75
2022/06/17 07:43:18;;;;;;;4.78;1.83;;;;;;;;;;4826260;29;20441;-81
2022/06/17 07:45:45;;;;;;;5.05;1.73;;;;;;;;;;4826051;29;20046;-76
2022/06/17 07:48:12;;;;;;;4.20;1.83;;;;;;;;;;4856131;29;20163;-81
2022/06/17 07:50:41;;;;;;;4.10;1.40;;;;;;;;;;4825951;29;20042;-81
2022/06/17 07:53:07;;;;;;;3.38;1.70;;;;;;;;;;4848717;29;20062;-79
2022/06/17 07:55:33;;;;;;;4.50;1.20;;;;;;;;;;4846687;29;20113;-80
2022/06/17 07:58:00;;;;;;;3.22;1.30;;;;;;;;;;4843819;29;20062;-80
2022/06/17 08:00:28;;;;;;;6.10;1.60;;;;;;;;;;4837047;29;20035;-86
2022/06/17 08:02:54;;;;;;;4.38;1.00;;;;;;;;;;4837234;29;20039;-77
2022/06/17 08:05:21;;;;;;;3.55;1.17;;;;;;;;;;4837595;29;20407;-81
2022/06/17 08:07:49;;;;;;;3.50;1.20;;;;;;;;;;4837503;29;20035;-84
2022/06/17 08:10:23;;;;;;;3.90;1.30;;;;;;;;;;4837475;29;20045;-80
2022/06/17 08:12:49;;;;;;;3.33;1.17;;;;;;;;;;4837223;29;20054;-79
2022/06/17 08:15:15;;;;;;;4.32;1.30;;;;;;;;;;4809522;29;20031;-81
2022/06/17 08:17:42;;;;;;;3.85;1.20;;;;;;;;;;4836847;29;20034;-78
2022/06/17 08:20:14;;;;;;;2.70;1.10;;;;;;;;;;4807591;29;20031;-79
2022/06/17 08:22:42;;;;;;;2.75;1.40;;;;;;;;;;4836700;29;20050;-78
2022/06/17 08:25:08;;;;;;;4.07;1.33;;;;;;;;;;4836146;29;20047;-79
2022/06/17 08:27:41;;;;;;;5.82;1.50;;;;;;;;;;4807566;29;20031;-80
2022/06/17 08:30:07;;;;;;;3.13;1.15;;;;;;;;;;4836582;29;20041;-81
2022/06/17 08:32:45;;;;;;;5.18;1.60;;;;;;;;;;4807701;29;20031;-80
2022/06/17 08:35:16;;;;;;;3.08;1.55;;;;;;;;;;4836998;29;20057;-80
2022/06/17 08:37:43;;;;;;;3.17;1.30;;;;;;;;;;4836620;29;20031;-77
2022/06/17 08:40:27;;;;;;;3.17;1.30;;;;;;;;;;4836411;29;20039;-79
2022/06/17 08:42:59;;;;;;;3.80;1.30;;;;;;;;;;4837222;29;20442;-84
2022/06/17 08:45:42;;;;;;;3.13;1.20;;;;;;;;;;4837065;29;20039;-81
2022/06/17 08:48:09;;;;;;;4.80;1.70;;;;;;;;;;4836732;29;20031;-80
2022/06/17 08:50:43;;;;;;;2.03;1.00;;;;;;;;;;4836245;29;20042;-80
2022/06/17 08:53:09;;;;;;;3.10;1.00;;;;;;;;;;4836557;29;20023;-82
2022/06/17 08:55:38;;;;;;;3.20;1.30;;;;;;;;;;4836932;29;20054;-79
2022/06/17 08:58:04;;;;;;;4.35;1.30;;;;;;;;;;4837273;29;20505;-80
2022/06/17 09:00:35;;;;;;;3.47;1.17;;;;;;;;;;4806941;29;20074;-81
2022/06/17 09:03:19;;;;;;;5.30;1.20;;;;;;;;;;4836346;29;20038;-79
2022/06/17 09:05:54;;;;;;;2.83;0.88;;;;;;;;;;4836007;29;20305;-81
2022/06/17 09:08:20;;;;;;;4.10;1.00;;;;;;;;;;4836113;29;20402;-80
2022/06/17 09:11:01;;;;;;;2.35;0.90;;;;;;;;;;4836134;29;20038;-81
2022/06/17 09:13:28;;;;;;;;;;;;;;;;;;4836428;29;20035;-81
2022/06/17 09:16:13;;;;;;;2.08;1.10;;;;;;;;;;4835217;29;19965;-79
2022/06/17 09:18:43;;;;;;;5.57;1.10;;;;;;;;;;4836099;29;20057;-88
2022/06/17 09:21:09;;;;;;;4.07;1.07;;;;;;;;;;4836949;29;20067;-83
2022/06/17 09:23:39;;;;;;;3.03;1.10;;;;;;;;;;4806931;29;20027;-83
2022/06/17 09:26:20;;;;;;;4.22;1.10;;;;;;;;;;4835901;29;20034;-79
2022/06/17 09:28:54;;;;;;;2.40;0.90;;;;;;;;;;4835837;29;20439;-82
2022/06/17 09:31:28;;;;;;;2.80;0.90;;;;;;;;;;4835973;29;20030;-86
2022/06/17 09:34:15;;;;;;;2.83;1.15;;;;;;;;;;4838873;29;20023;-85
2022/06/17 09:36:47;;;;;;;4.43;1.40;;;;;;;;;;4836033;29;20118;-83
2022/06/17 09:39:21;;;;;;;4.28;1.30;;;;;;;;;;4837312;29;20042;-88
2022/06/17 09:41:51;;;;;;;3.85;1.45;;;;;;;;;;4837413;29;20046;-91
2022/06/17 09:44:35;;;;;;;3.35;1.60;;;;;;;;;;4836986;29;20103;-95
2022/06/17 09:47:07;;;;;;;4.03;1.50;;;;;;;;;;4836783;29;20035;-91
2022/06/17 09:49:36;;;;;;;3.70;1.50;;;;;;;;;;4837478;29;20038;-84
2022/06/17 09:52:14;;;;;;;4.68;1.60;;;;;;;;;;4836817;29;20046;-94
2022/06/17 09:54:43;;;;;;;7.32;1.42;;;;;;;;;;4836767;29;20491;-84
2022/06/17 09:57:13;;;;;;;4.43;1.90;;;;;;;;;;4836080;29;20060;-88
2022/06/17 09:59:51;;;;;;;3.92;1.80;;;;;;;;;;4837130;29;20040;-90
2022/06/17 10:05:37;;;;;;;4.18;1.60;;;;;;;;;;4807261;29;20104;-85
2022/06/17 10:08:03;;;;;;;2.83;1.45;;;;;;;;;;4802309;29;20051;-88
2022/06/17 10:10:39;;;;;;;3.13;1.48;;;;;;;;;;4836469;29;20066;-84
2022/06/17 10:13:05;;;;;;;4.30;1.52;;;;;;;;;;4836291;29;20468;-83
2022/06/17 10:15:37;;;;;;;2.72;1.33;;;;;;;;;;4810037;29;20034;-89
2022/06/17 10:21:16;;;;;;;4.22;1.42;;;;;;;;;;4807255;29;20095;-92
2022/06/17 10:23:58;;;;;;;2.10;1.30;;;;;;;;;;4836780;29;20027;-85
2022/06/17 10:26:47;;;;;;;3.40;1.30;;;;;;;;;;4836265;29;20045;-85
2022/06/17 10:29:16;;;;;;;3.30;1.67;;;;;;;;;;4800975;29;20400;-91
2022/06/17 10:31:44;;;;;;;4.65;1.40;;;;;;;;;;4839507;29;20354;-85
2022/06/17 10:34:24;;;;;;;5.05;1.35;;;;;;;;;;4810703;29;20039;-86
2022/06/17 10:36:54;;;;;;;3.45;1.48;;;;;;;;;;4840742;29;20030;-86
2022/06/17 10:39:23;;;;;;;3.78;1.60;;;;;;;;;;4839829;29;20035;-92
2022/06/17 10:41:49;;;;;;;2.30;1.50;;;;;;;;;;4839491;29;20053;-84
2022/06/17 10:44:17;;;;;;;4.80;1.48;;;;;;;;;;4839897;29;20042;-95
2022/06/17 10:46:46;;;;;;;2.13;1.23;;;;;;;;;;4840546;29;20384;-87
2022/06/17 10:49:17;;;;;;;4.93;1.50;;;;;;;;;;4839560;29;20481;-88
2022/06/17 10:51:44;;;;;;;3.80;1.23;;;;;;;;;;4839638;29;20103;-92
2022/06/17 10:54:42;;;;;;;2.28;1.15;;;;;;;;;;4843198;29;20021;-89
2022/06/17 10:57:12;;;;;;;2.60;1.50;;;;;;;;;;4811634;29;20042;-90
2022/06/17 10:59:43;;;;;;;4.60;1.60;;;;;;;;;;4844198;29;20070;-88
2022/06/17 11:02:38;;;;;;;3.15;1.30;;;;;;;;;;4849040;29;20473;-91
2022/06/17 11:05:36;;;;;;;3.53;1.45;;;;;;;;;;4828899;29;20047;-88
2022/06/17 11:08:23;;;;;;;2.63;1.25;;;;;;;;;;4849564;29;20114;-90
2022/06/17 11:12:02;;;;;;;8.63;1.40;;;;;;;;;;4826901;29;20037;-92
2022/06/17 11:13:51;;;;;;;3.63;1.40;;;;;;;;;;4827592;29;20535;-96
2022/06/17 11:16:24;;;;;;;2.70;1.08;;;;;;;;;;4827811;29;20031;-92
2022/06/17 11:19:02;;;;;;;3.92;1.20;;;;;;;;;;4845473;29;20034;-92
2022/06/17 11:24:28;;;;;;;3.47;1.30;;;;;;;;;;4828396;29;20048;-93
2022/06/17 11:27:23;;;;;;;1.85;1.17;;;;;;;;;;4842099;29;20030;-93
2022/06/17 11:29:51;;;;;;;2.55;1.30;;;;;;;;;;4842451;29;20507;-85
2022/06/17 11:32:20;;;;;;;2.72;1.30;;;;;;;;;;4842174;29;20133;-81
2022/06/17 11:35:16;;;;;;;3.97;1.40;;;;;;;;;;4842182;29;20076;-92
2022/06/17 11:37:46;;;;;;;4.35;1.40;;;;;;;;;;4820282;29;20389;-90
2022/06/17 11:40:17;;;;;;;5.00;1.38;;;;;;;;;;4827680;29;20022;-87
2022/06/17 11:43:09;;;;;;;3.10;1.58;;;;;;;;;;4846671;29;20019;-88
2022/06/17 11:45:36;;;;;;;3.30;1.30;;;;;;;;;;4824758;29;20061;-87
2022/06/17 11:48:04;;;;;;;2.47;1.35;;;;;;;;;;4841973;29;20034;-81
2022/06/17 11:50:37;;;;;;;2.30;1.20;;;;;;;;;;4841305;29;20093;-91
2022/06/17 11:53:08;;;;;;;2.63;1.35;;;;;;;;;;4841606;29;20037;-91
2022/06/17 11:55:40;;;;;;;4.22;1.38;;;;;;;;;;4842014;29;20027;-89
2022/06/17 11:58:06;;;;;;;3.20;1.30;;;;;;;;;;4841322;29;20083;-85
2022/06/17 12:00:46;;;;;;;2.67;1.27;;;;;;;;;;4841765;29;20022;-90
2022/06/17 12:03:14;;;;;;;3.63;1.60;;;;;;;;;;4841800;29;20034;-90
2022/06/17 12:05:40;;;;;;;2.47;1.40;;;;;;;;;;4841343;29;20042;-81
2022/06/17 12:08:25;;;;;;;4.80;1.42;;;;;;;;;;4840920;29;20026;-85
2022/06/17 12:10:52;;;;;;;2.65;1.13;;;;;;;;;;4826876;29;20472;-94
2022/06/17 12:13:18;;;;;;;2.83;1.23;;;;;;;;;;4841165;29;20041;-84
2022/06/17 12:15:45;;;;;;;3.15;0.98;;;;;;;;;;4841342;29;20026;-93
2022/06/17 12:18:20;;;;;;;1.85;1.08;;;;;;;;;;4826831;29;20030;-86
2022/06/17 12:21:07;;;;;;;3.00;1.15;;;;;;;;;;4827814;29;20480;-92
2022/06/17 12:23:41;;;;;;;2.72;1.10;;;;;;;;;;4840873;29;20027;-87
2022/06/17 12:26:12;;;;;;;3.63;1.20;;;;;;;;;;4840832;29;20484;-90
2022/06/17 12:28:51;;;;;;;3.97;1.20;;;;;;;;;;4840954;29;20457;-87
2022/06/17 12:31:45;;;;;;;3.10;1.20;;;;;;;;;;4840777;29;20045;-90
2022/06/17 12:34:17;;;;;;;2.95;1.20;;;;;;;;;;4826969;29;20046;-88
2022/06/17 12:37:15;;;;;;;3.73;1.00;;;;;;;;;;4854242;29;20516;-88
2022/06/17 12:40:02;;;;;;;2.58;1.23;;;;;;;;;;4825856;29;20271;-94
2022/06/17 12:42:47;;;;;;;2.63;1.08;;;;;;;;;;4856046;29;20034;-83
2022/06/17 12:45:16;;;;;;;1.80;1.00;;;;;;;;;;4856401;29;20067;-86
2022/06/17 12:48:00;;;;;;;1.98;0.80;;;;;;;;;;4856782;29;20380;-86
2022/06/17 12:53:33;;;;;;;3.97;1.13;;;;;;;;;;4826254;29;20102;-85
2022/06/17 12:56:18;;;;;;;6.95;1.10;;;;;;;;;;4860613;29;20034;-90
2022/06/17 12:59:06;;;;;;;4.18;1.27;;;;;;;;;;4855453;29;20069;-86
2022/06/17 13:01:49;;;;;;;3.95;1.13;;;;;;;;;;4855884;29;20452;-90
2022/06/17 13:04:34;;;;;;;2.88;1.02;;;;;;;;;;4855720;29;20060;-87
2022/06/17 13:07:31;;;;;;;2.72;1.30;;;;;;;;;;4856048;29;20057;-94
2022/06/17 13:13:10;;;;;;;3.85;1.17;;;;;;;;;;4826047;29;20503;-95
2022/06/17 13:15:55;;;;;;;4.65;1.08;;;;;;;;;;4856089;29;20484;-91
2022/06/17 13:18:32;;;;;;;4.65;1.33;;;;;;;;;;4855535;29;20030;-90
2022/06/17 13:21:13;;;;;;;4.68;1.20;;;;;;;;;;4855579;29;20026;-90
2022/06/17 13:24:04;;;;;;;2.80;1.13;;;;;;;;;;4855542;29;20407;-90
2022/06/17 13:26:46;;;;;;;2.83;1.25;;;;;;;;;;4855846;29;20037;-83
2022/06/17 13:29:28;;;;;;;2.75;1.20;;;;;;;;;;4857107;29;20030;-90
2022/06/17 13:32:01;;;;;;;3.13;1.25;;;;;;;;;;4843158;29;20035;-91
2022/06/17 13:34:42;;;;;;;2.15;1.00;;;;;;;;;;4857633;29;20062;-82
2022/06/17 13:37:16;;;;;;;7.18;1.40;;;;;;;;;;4854901;29;20118;-78
2022/06/17 13:39:53;;;;;;;4.55;1.30;;;;;;;;;;4824885;29;20055;-78
2022/06/17 13:42:20;;;;;;;3.13;1.00;;;;;;;;;;4853973;29;20170;-80
2022/06/17 13:44:46;;;;;;;2.28;1.08;;;;;;;;;;4853917;29;20403;-79
2022/06/17 13:47:42;;;;;;;2.38;1.00;;;;;;;;;;4824843;29;20395;-78
2022/06/17 13:50:31;;;;;;;1.80;0.88;;;;;;;;;;4828064;29;20050;-80
2022/06/17 13:53:15;;;;;;;2.47;0.98;;;;;;;;;;4825467;29;20192;-80
2022/06/17 13:55:41;;;;;;;2.13;1.08;;;;;;;;;;4842018;29;20117;-78
2022/06/17 13:58:26;;;;;;;4.28;1.15;;;;;;;;;;4844448;29;20110;-81
2022/06/17 14:00:55;;;;;;;3.50;1.10;;;;;;;;;;4822532;29;20030;-80
2022/06/17 14:03:23;;;;;;;4.28;1.10;;;;;;;;;;4837684;29;20022;-81
2022/06/17 14:06:04;;;;;;;2.88;1.10;;;;;;;;;;4823356;29;20154;-86
2022/06/17 14:09:00;;;;;;;3.38;1.10;;;;;;;;;;4845467;29;20142;-84
2022/06/17 14:11:38;;;;;;;3.25;1.13;;;;;;;;;;4818973;29;20175;-85
2022/06/17 14:14:20;;;;;;;3.63;1.30;;;;;;;;;;4824282;29;20045;-88
2022/06/17 14:17:02;;;;;;;1.90;0.90;;;;;;;;;;4822093;29;20038;-81
2022/06/17 14:19:31;;;;;;;3.65;1.17;;;;;;;;;;4821505;29;20040;-81
2022/06/17 14:21:58;;;;;;;5.22;1.15;;;;;;;;;;4845583;29;20125;-84
2022/06/17 14:24:43;;;;;;;2.47;0.90;;;;;;;;;;4838275;29;20038;-81
2022/06/17 14:27:12;;;;;;;2.60;1.10;;;;;;;;;;4833983;29;20019;-82
2022/06/17 14:29:38;;;;;;;1.73;1.00;;;;;;;;;;4856754;29;20487;-77
2022/06/17 14:32:19;;;;;;;3.05;1.20;;;;;;;;;;4856386;29;20510;-79
2022/06/17 14:34:51;;;;;;;3.13;0.93;;;;;;;;;;4857078;29;20514;-80
2022/06/17 14:37:34;;;;;;;3.97;1.00;;;;;;;;;;4853390;29;20034;-80
2022/06/17 14:40:15;;;;;;;2.20;1.00;;;;;;;;;;4848682;29;20484;-86
2022/06/17 14:43:00;;;;;;;2.05;1.00;;;;;;;;;;4843609;29;20034;-84
2022/06/17 14:45:32;;;;;;;4.10;1.00;;;;;;;;;;4846843;29;20553;-79
2022/06/17 14:48:11;;;;;;;3.45;1.00;;;;;;;;;;4845217;29;20034;-79
2022/06/17 14:50:43;;;;;;;2.25;1.15;;;;;;;;;;4822444;29;20049;-79
2022/06/17 14:53:14;;;;;;;1.80;0.83;;;;;;;;;;4838797;29;20030;-78
2022/06/17 14:56:01;;;;;;;3.42;0.98;;;;;;;;;;4837948;29;20124;-76
2022/06/17 14:58:50;;;;;;;1.92;1.00;;;;;;;;;;4822493;29;20112;-77
2022/06/17 15:01:19;;;;;;;2.95;1.10;;;;;;;;;;4819991;29;20038;-84
2022/06/17 15:03:46;;;;;;;10.10;1.38;;;;;;;;;;4837221;29;20037;-79
2022/06/17 15:06:13;;;;;;;3.40;1.20;;;;;;;;;;4823821;29;20030;-80
2022/06/17 15:08:44;;;;;;;2.67;1.10;;;;;;;;;;4824256;29;20031;-84
2022/06/17 15:11:16;;;;;;;4.32;1.02;;;;;;;;;;4838089;29;20349;-82
2022/06/17 15:14:07;;;;;;;4.40;1.00;;;;;;;;;;4824039;29;20030;-85
2022/06/17 15:16:35;;;;;;;3.75;0.90;;;;;;;;;;4837452;29;20279;-80
2022/06/17 15:19:06;;;;;;;4.30;1.00;;;;;;;;;;4875165;29;20034;-84
2022/06/17 15:21:34;;;;;;;2.97;1.02;;;;;;;;;;4845870;29;20026;-88
2022/06/17 15:24:06;;;;;;;4.20;1.10;;;;;;;;;;4845472;29;20379;-80
2022/06/17 15:26:35;;;;;;;6.05;1.38;;;;;;;;;;4875179;29;20029;-79
2022/06/17 15:29:01;;;;;;;5.40;1.00;;;;;;;;;;4844903;29;20373;-81
2022/06/17 15:31:36;;;;;;;6.43;1.35;;;;;;;;;;4874973;29;20026;-80
2022/06/17 15:34:06;;;;;;;1.65;0.80;;;;;;;;;;4838944;29;20026;-82